sensor_id;sensor_type;location;lat;lon;timestamp;temperature;humidity
82039;DHT22;71610;42.628;23.378;2023-07-20T03:42:09;28.20;42.10
82039;DHT22;71610;42.628;23.378;2023-07-20T03:44:35;29.10;39.60
82039;DHT22;71610;42.628;23.378;2023-07-20T03:47:00;29.10;42.30
82039;DHT22;71610;42.628;23.378;2023-07-20T03:49:26;29.00;41.40
82039;DHT22;71610;42.628;23.378;2023-07-20T03:51:51;29.00;40.10
82039;DHT22;71610;42.628;23.378;2023-07-20T03:54:17;28.90;39.20
82039;DHT22;71610;42.628;23.378;2023-07-20T03:56:44;28.80;38.70
82039;DHT22;71610;42.628;23.378;2023-07-20T03:59:10;28.70;38.80
82039;DHT22;71610;42.628;23.378;2023-07-20T04:01:35;28.70;38.90
82039;DHT22;71610;42.628;23.378;2023-07-20T04:04:06;28.70;39.00
82039;DHT22;71610;42.628;23.378;2023-07-20T04:06:32;28.70;39.20
82039;DHT22;71610;42.628;23.378;2023-07-20T04:08:58;28.80;38.70
82039;DHT22;71610;42.628;23.378;2023-07-20T04:11:24;28.80;37.70
82039;DHT22;71610;42.628;23.378;2023-07-20T04:13:49;28.80;37.00
82039;DHT22;71610;42.628;23.378;2023-07-20T04:16:15;28.90;36.30
82039;DHT22;71610;42.628;23.378;2023-07-20T04:18:40;28.90;35.50
82039;DHT22;71610;42.628;23.378;2023-07-20T04:21:08;29.00;35.00
82039;DHT22;71610;42.628;23.378;2023-07-20T04:23:34;28.90;34.30
82039;DHT22;71610;42.628;23.378;2023-07-20T04:26:01;29.00;33.80
82039;DHT22;71610;42.628;23.378;2023-07-20T04:28:27;29.00;33.40
82039;DHT22;71610;42.628;23.378;2023-07-20T04:30:53;29.10;32.90
82039;DHT22;71610;42.628;23.378;2023-07-20T04:33:19;29.10;32.40
82039;DHT22;71610;42.628;23.378;2023-07-20T04:38:14;29.20;31.60
82039;DHT22;71610;42.628;23.378;2023-07-20T04:40:41;29.30;31.30
82039;DHT22;71610;42.628;23.378;2023-07-20T04:43:07;29.30;30.90
82039;DHT22;71610;42.628;23.378;2023-07-20T04:45:33;29.30;30.40
82039;DHT22;71610;42.628;23.378;2023-07-20T04:47:58;29.30;30.40
82039;DHT22;71610;42.628;23.378;2023-07-20T04:50:24;29.30;30.00
82039;DHT22;71610;42.628;23.378;2023-07-20T04:52:50;29.40;29.90
82039;DHT22;71610;42.628;23.378;2023-07-20T04:55:16;29.40;29.40
82039;DHT22;71610;42.628;23.378;2023-07-20T04:57:42;29.40;29.00
82039;DHT22;71610;42.628;23.378;2023-07-20T05:00:08;29.40;28.50
82039;DHT22;71610;42.628;23.378;2023-07-20T05:02:36;29.40;28.10
82039;DHT22;71610;42.628;23.378;2023-07-20T05:05:02;29.40;27.70
82039;DHT22;71610;42.628;23.378;2023-07-20T05:07:28;29.50;27.30
82039;DHT22;71610;42.628;23.378;2023-07-20T05:09:53;29.50;26.90
82039;DHT22;71610;42.628;23.378;2023-07-20T05:12:19;29.40;26.60
82039;DHT22;71610;42.628;23.378;2023-07-20T05:14:45;29.50;26.40
82039;DHT22;71610;42.628;23.378;2023-07-20T05:17:11;29.50;26.00
82039;DHT22;71610;42.628;23.378;2023-07-20T05:19:36;29.50;25.70
82039;DHT22;71610;42.628;23.378;2023-07-20T05:22:02;29.50;25.40
82039;DHT22;71610;42.628;23.378;2023-07-20T05:24:28;29.50;25.20
82039;DHT22;71610;42.628;23.378;2023-07-20T05:26:53;29.50;24.90
82039;DHT22;71610;42.628;23.378;2023-07-20T05:29:19;29.50;24.70
82039;DHT22;71610;42.628;23.378;2023-07-20T05:31:45;29.50;24.50
82039;DHT22;71610;42.628;23.378;2023-07-20T05:34:10;29.60;24.30
82039;DHT22;71610;42.628;23.378;2023-07-20T05:36:36;29.60;24.00
82039;DHT22;71610;42.628;23.378;2023-07-20T05:39:02;29.60;23.80
82039;DHT22;71610;42.628;23.378;2023-07-20T05:41:28;29.60;23.50
82039;DHT22;71610;42.628;23.378;2023-07-20T05:43:53;29.60;23.30
82039;DHT22;71610;42.628;23.378;2023-07-20T05:46:19;29.60;23.10
82039;DHT22;71610;42.628;23.378;2023-07-20T05:48:45;29.60;22.90
82039;DHT22;71610;42.628;23.378;2023-07-20T05:51:10;29.60;22.70
82039;DHT22;71610;42.628;23.378;2023-07-20T05:53:36;29.60;22.60
82039;DHT22;71610;42.628;23.378;2023-07-20T05:56:01;29.70;22.40
82039;DHT22;71610;42.628;23.378;2023-07-20T05:58:28;29.70;22.20
82039;DHT22;71610;42.628;23.378;2023-07-20T06:00:54;29.70;22.10
82039;DHT22;71610;42.628;23.378;2023-07-20T06:03:19;29.70;22.80
82039;DHT22;71610;42.628;23.378;2023-07-20T06:05:46;29.70;23.40
82039;DHT22;71610;42.628;23.378;2023-07-20T06:08:12;29.80;24.50
82039;DHT22;71610;42.628;23.378;2023-07-20T06:10:38;29.90;25.10
82039;DHT22;71610;42.628;23.378;2023-07-20T06:13:03;29.90;25.50
82039;DHT22;71610;42.628;23.378;2023-07-20T06:15:33;29.90;25.90
82039;DHT22;71610;42.628;23.378;2023-07-20T06:18:02;30.00;25.90
82039;DHT22;71610;42.628;23.378;2023-07-20T06:20:29;30.10;26.50
82039;DHT22;71610;42.628;23.378;2023-07-20T06:22:55;30.10;26.90
82039;DHT22;71610;42.628;23.378;2023-07-20T06:25:20;30.10;27.00
82039;DHT22;71610;42.628;23.378;2023-07-20T06:27:48;30.20;27.30
82039;DHT22;71610;42.628;23.378;2023-07-20T06:30:14;30.20;27.90
82039;DHT22;71610;42.628;23.378;2023-07-20T06:32:39;30.30;28.00
82039;DHT22;71610;42.628;23.378;2023-07-20T06:35:05;30.30;28.30
82039;DHT22;71610;42.628;23.378;2023-07-20T06:37:32;30.30;28.50
82039;DHT22;71610;42.628;23.378;2023-07-20T06:39:58;30.30;28.50
82039;DHT22;71610;42.628;23.378;2023-07-20T06:42:23;30.40;29.00
82039;DHT22;71610;42.628;23.378;2023-07-20T06:44:49;30.40;29.20
82039;DHT22;71610;42.628;23.378;2023-07-20T06:47:15;30.40;29.40
82039;DHT22;71610;42.628;23.378;2023-07-20T06:49:40;30.50;29.40
82039;DHT22;71610;42.628;23.378;2023-07-20T06:52:06;30.50;29.30
82039;DHT22;71610;42.628;23.378;2023-07-20T06:54:32;30.50;29.40
82039;DHT22;71610;42.628;23.378;2023-07-20T06:56:58;30.50;29.10
82039;DHT22;71610;42.628;23.378;2023-07-20T06:59:23;30.50;28.60
82039;DHT22;71610;42.628;23.378;2023-07-20T07:01:50;30.50;28.20
82039;DHT22;71610;42.628;23.378;2023-07-20T07:04:15;30.40;27.80
82039;DHT22;71610;42.628;23.378;2023-07-20T07:06:41;30.40;27.40
82039;DHT22;71610;42.628;23.378;2023-07-20T07:09:06;30.40;27.00
82039;DHT22;71610;42.628;23.378;2023-07-20T07:11:33;30.40;26.70
82039;DHT22;71610;42.628;23.378;2023-07-20T07:13:59;30.40;26.30
82039;DHT22;71610;42.628;23.378;2023-07-20T07:16:25;30.40;26.00
82039;DHT22;71610;42.628;23.378;2023-07-20T07:18:51;30.30;25.60
82039;DHT22;71610;42.628;23.378;2023-07-20T07:21:16;30.30;25.40
82039;DHT22;71610;42.628;23.378;2023-07-20T07:23:43;30.20;25.10
82039;DHT22;71610;42.628;23.378;2023-07-20T07:26:12;30.10;24.80
82039;DHT22;71610;42.628;23.378;2023-07-20T07:28:37;30.10;24.60
82039;DHT22;71610;42.628;23.378;2023-07-20T07:31:06;30.10;24.40
82039;DHT22;71610;42.628;23.378;2023-07-20T07:33:32;30.10;24.20
82039;DHT22;71610;42.628;23.378;2023-07-20T07:35:58;30.10;23.90
82039;DHT22;71610;42.628;23.378;2023-07-20T07:38:23;30.00;23.70
82039;DHT22;71610;42.628;23.378;2023-07-20T07:40:49;30.10;23.60
82039;DHT22;71610;42.628;23.378;2023-07-20T07:43:15;30.10;23.40
82039;DHT22;71610;42.628;23.378;2023-07-20T07:45:40;30.00;23.20
82039;DHT22;71610;42.628;23.378;2023-07-20T07:48:07;30.00;23.00
82039;DHT22;71610;42.628;23.378;2023-07-20T07:50:33;30.00;22.80
82039;DHT22;71610;42.628;23.378;2023-07-20T07:52:59;30.00;22.60
82039;DHT22;71610;42.628;23.378;2023-07-20T07:55:25;30.00;22.50
82039;DHT22;71610;42.628;23.378;2023-07-20T07:57:54;30.00;22.40
82039;DHT22;71610;42.628;23.378;2023-07-20T08:00:20;30.00;22.20
82039;DHT22;71610;42.628;23.378;2023-07-20T08:02:46;30.00;22.20
82039;DHT22;71610;42.628;23.378;2023-07-20T08:05:13;30.00;22.10
82039;DHT22;71610;42.628;23.378;2023-07-20T08:07:39;30.00;21.90
82039;DHT22;71610;42.628;23.378;2023-07-20T08:10:05;29.90;21.80
82039;DHT22;71610;42.628;23.378;2023-07-20T08:12:31;29.90;21.60
82039;DHT22;71610;42.628;23.378;2023-07-20T08:14:57;29.90;21.50
82039;DHT22;71610;42.628;23.378;2023-07-20T08:17:23;29.90;21.70
82039;DHT22;71610;42.628;23.378;2023-07-20T08:19:48;29.90;23.00
82039;DHT22;71610;42.628;23.378;2023-07-20T08:22:14;29.90;24.20
82039;DHT22;71610;42.628;23.378;2023-07-20T08:24:41;30.00;25.80
82039;DHT22;71610;42.628;23.378;2023-07-20T08:27:08;30.00;26.80
82039;DHT22;71610;42.628;23.378;2023-07-20T08:29:37;30.10;27.50
82039;DHT22;71610;42.628;23.378;2023-07-20T08:32:03;30.10;27.80
82039;DHT22;71610;42.628;23.378;2023-07-20T08:34:30;30.10;27.90
82039;DHT22;71610;42.628;23.378;2023-07-20T08:36:55;30.10;28.80
82039;DHT22;71610;42.628;23.378;2023-07-20T08:39:22;30.20;29.00
82039;DHT22;71610;42.628;23.378;2023-07-20T08:41:48;30.20;29.70
82039;DHT22;71610;42.628;23.378;2023-07-20T08:44:14;30.20;29.90
82039;DHT22;71610;42.628;23.378;2023-07-20T08:46:40;30.20;29.90
82039;DHT22;71610;42.628;23.378;2023-07-20T08:49:06;30.30;30.40
82039;DHT22;71610;42.628;23.378;2023-07-20T08:51:33;30.30;31.10
82039;DHT22;71610;42.628;23.378;2023-07-20T08:54:02;30.30;31.70
82039;DHT22;71610;42.628;23.378;2023-07-20T08:56:29;30.30;32.50
82039;DHT22;71610;42.628;23.378;2023-07-20T08:58:56;30.40;33.70
82039;DHT22;71610;42.628;23.378;2023-07-20T09:01:22;30.40;33.50
82039;DHT22;71610;42.628;23.378;2023-07-20T09:03:49;30.40;32.90
82039;DHT22;71610;42.628;23.378;2023-07-20T09:06:15;30.40;33.20
82039;DHT22;71610;42.628;23.378;2023-07-20T09:08:42;30.40;33.50
82039;DHT22;71610;42.628;23.378;2023-07-20T09:11:10;30.40;33.70
82039;DHT22;71610;42.628;23.378;2023-07-20T09:13:37;30.40;34.40
82039;DHT22;71610;42.628;23.378;2023-07-20T09:16:03;30.40;34.30
82039;DHT22;71610;42.628;23.378;2023-07-20T09:18:31;30.40;33.90
82039;DHT22;71610;42.628;23.378;2023-07-20T09:21:05;30.40;33.80
82039;DHT22;71610;42.628;23.378;2023-07-20T09:23:35;30.40;34.70
82039;DHT22;71610;42.628;23.378;2023-07-20T09:26:10;30.50;34.50
82039;DHT22;71610;42.628;23.378;2023-07-20T09:28:49;30.40;33.70
82039;DHT22;71610;42.628;23.378;2023-07-20T09:31:22;30.40;33.60
82039;DHT22;71610;42.628;23.378;2023-07-20T09:33:49;30.40;33.50
82039;DHT22;71610;42.628;23.378;2023-07-20T09:36:15;30.30;33.40
82039;DHT22;71610;42.628;23.378;2023-07-20T09:38:43;30.30;33.30
82039;DHT22;71610;42.628;23.378;2023-07-20T09:41:15;30.30;33.20
82039;DHT22;71610;42.628;23.378;2023-07-20T09:43:44;30.30;33.10
82039;DHT22;71610;42.628;23.378;2023-07-20T09:46:10;30.30;33.10
82039;DHT22;71610;42.628;23.378;2023-07-20T09:48:36;30.20;33.00
82039;DHT22;71610;42.628;23.378;2023-07-20T09:51:02;30.20;32.90
82039;DHT22;71610;42.628;23.378;2023-07-20T09:53:28;30.20;32.80
82039;DHT22;71610;42.628;23.378;2023-07-20T09:55:55;30.20;32.80
82039;DHT22;71610;42.628;23.378;2023-07-20T09:58:22;30.20;32.60
82039;DHT22;71610;42.628;23.378;2023-07-20T10:00:50;30.20;32.50
82039;DHT22;71610;42.628;23.378;2023-07-20T10:03:22;30.10;32.40
82039;DHT22;71610;42.628;23.378;2023-07-20T10:05:56;30.10;32.90
82039;DHT22;71610;42.628;23.378;2023-07-20T10:08:24;30.10;33.70
82039;DHT22;71610;42.628;23.378;2023-07-20T10:10:50;30.10;32.20
82039;DHT22;71610;42.628;23.378;2023-07-20T10:13:27;30.10;32.00
82039;DHT22;71610;42.628;23.378;2023-07-20T10:16:07;30.10;32.10
82039;DHT22;71610;42.628;23.378;2023-07-20T10:18:46;30.00;32.00
82039;DHT22;71610;42.628;23.378;2023-07-20T10:21:15;30.00;31.90
82039;DHT22;71610;42.628;23.378;2023-07-20T10:23:42;30.00;32.00
82039;DHT22;71610;42.628;23.378;2023-07-20T10:26:09;30.00;32.00
82039;DHT22;71610;42.628;23.378;2023-07-20T10:28:36;30.00;32.00
82039;DHT22;71610;42.628;23.378;2023-07-20T10:31:02;29.90;31.80
82039;DHT22;71610;42.628;23.378;2023-07-20T10:33:29;30.00;31.70
82039;DHT22;71610;42.628;23.378;2023-07-20T10:36:02;29.90;31.60
82039;DHT22;71610;42.628;23.378;2023-07-20T10:41:37;29.90;31.40
82039;DHT22;71610;42.628;23.378;2023-07-20T10:44:07;29.90;31.20
82039;DHT22;71610;42.628;23.378;2023-07-20T10:49:09;29.90;30.80
82039;DHT22;71610;42.628;23.378;2023-07-20T10:51:46;29.90;30.80
82039;DHT22;71610;42.628;23.378;2023-07-20T10:56:44;29.80;30.80
82039;DHT22;71610;42.628;23.378;2023-07-20T11:01:57;29.70;30.70
82039;DHT22;71610;42.628;23.378;2023-07-20T11:04:42;29.70;30.70
82039;DHT22;71610;42.628;23.378;2023-07-20T11:07:08;29.70;30.60
82039;DHT22;71610;42.628;23.378;2023-07-20T11:09:35;29.70;30.70
82039;DHT22;71610;42.628;23.378;2023-07-20T11:12:14;29.70;30.60
82039;DHT22;71610;42.628;23.378;2023-07-20T11:14:53;29.70;30.50
82039;DHT22;71610;42.628;23.378;2023-07-20T11:17:19;29.70;30.40
82039;DHT22;71610;42.628;23.378;2023-07-20T11:19:55;29.70;30.40
82039;DHT22;71610;42.628;23.378;2023-07-20T11:22:21;29.70;30.70
82039;DHT22;71610;42.628;23.378;2023-07-20T11:24:47;29.70;30.50
82039;DHT22;71610;42.628;23.378;2023-07-20T11:27:14;29.70;30.70
82039;DHT22;71610;42.628;23.378;2023-07-20T11:29:40;29.70;31.80
82039;DHT22;71610;42.628;23.378;2023-07-20T11:32:06;29.70;30.70
